Search for airport 
image banner adimage banner adimage banner ad
image banner ad

9PS9 - St Mary Medical Center

Located in Langhorne, United States

ICAO - 9PS9, IATA -

Data provided by Airmate  

General information

Coordinates: N40°12'8" W74°55'23"
Elevation is 150 feet MSL.
Magnetic variation is -12° East
View others Airports in Pennsylvania

Operational data

Special qualification required
Current time UTC:
Current local time:
Weather at : KTTN - Trenton Mercer ( 12 km )
METAR: KTTN 091253Z VRB06KT 10SM CLR 10/05 A3010 RMK AO2 SLP186 T01000050
TAF: KTTN 091120Z 0912/1012 VRB03KT P6SM SCT250 FM092000 20006KT P6SM VCSH OVC030 FM100500 VRB04KT P6SM VCSH BKN040 WS020/23035KT FM101100 32006KT P6SM SCT040
View NOTAMs / SUP AIP / TFR affecting this airport [VIEW]
Communications frequencies: [VIEW]

Runways:

Airport contact information

Address: Langhorne United States

Satellite view of 9PS9